sensor_id;sensor_type;location;lat;lon;timestamp;pressure;altitude;pressure_sealevel;temperature;humidity
12793;BME280;6460;42.684;23.260;2023-02-12T00:00:04;95549.81;;;1.62;44.67
12793;BME280;6460;42.684;23.260;2023-02-12T00:02:31;95558.63;;;1.47;44.61
12793;BME280;6460;42.684;23.260;2023-02-12T00:04:58;95548.94;;;1.71;43.97
12793;BME280;6460;42.684;23.260;2023-02-12T00:07:25;95541.56;;;1.68;44.07
12793;BME280;6460;42.684;23.260;2023-02-12T00:09:55;95551.09;;;1.69;43.60
12793;BME280;6460;42.684;23.260;2023-02-12T00:12:23;95569.09;;;1.67;43.71
12793;BME280;6460;42.684;23.260;2023-02-12T00:14:50;95570.25;;;1.56;44.20
12793;BME280;6460;42.684;23.260;2023-02-12T00:17:16;95566.81;;;1.55;44.49
12793;BME280;6460;42.684;23.260;2023-02-12T00:19:43;95568.06;;;1.63;44.72
12793;BME280;6460;42.684;23.260;2023-02-12T00:22:10;95559.13;;;1.54;44.97
12793;BME280;6460;42.684;23.260;2023-02-12T00:24:37;95570.84;;;1.43;45.13
12793;BME280;6460;42.684;23.260;2023-02-12T00:27:03;95569.00;;;1.43;44.99
12793;BME280;6460;42.684;23.260;2023-02-12T00:29:32;95558.50;;;1.72;44.50
12793;BME280;6460;42.684;23.260;2023-02-12T00:31:59;95553.69;;;1.74;44.76
12793;BME280;6460;42.684;23.260;2023-02-12T00:34:26;95556.75;;;1.47;45.16
12793;BME280;6460;42.684;23.260;2023-02-12T00:36:52;95532.06;;;1.57;45.56
12793;BME280;6460;42.684;23.260;2023-02-12T00:39:19;95533.97;;;1.51;45.16
12793;BME280;6460;42.684;23.260;2023-02-12T00:41:46;95544.06;;;1.49;45.33
12793;BME280;6460;42.684;23.260;2023-02-12T00:44:13;95561.00;;;1.48;45.40
12793;BME280;6460;42.684;23.260;2023-02-12T00:46:41;95519.91;;;1.56;44.85
12793;BME280;6460;42.684;23.260;2023-02-12T00:49:08;95522.56;;;1.51;44.81
12793;BME280;6460;42.684;23.260;2023-02-12T00:51:35;95514.94;;;1.49;44.98
12793;BME280;6460;42.684;23.260;2023-02-12T00:54:02;95514.13;;;1.49;45.17
12793;BME280;6460;42.684;23.260;2023-02-12T00:56:29;95513.06;;;1.50;44.96
12793;BME280;6460;42.684;23.260;2023-02-12T00:58:56;95504.16;;;1.36;45.64
12793;BME280;6460;42.684;23.260;2023-02-12T01:01:23;95495.53;;;1.54;45.28
12793;BME280;6460;42.684;23.260;2023-02-12T01:03:51;95494.25;;;1.51;45.17
12793;BME280;6460;42.684;23.260;2023-02-12T01:06:18;95502.44;;;1.55;44.59
12793;BME280;6460;42.684;23.260;2023-02-12T01:08:45;95511.69;;;1.57;44.21
12793;BME280;6460;42.684;23.260;2023-02-12T01:11:12;95496.69;;;1.43;44.91
12793;BME280;6460;42.684;23.260;2023-02-12T01:13:39;95504.16;;;1.36;45.23
12793;BME280;6460;42.684;23.260;2023-02-12T01:16:08;95510.72;;;1.43;45.43
12793;BME280;6460;42.684;23.260;2023-02-12T01:18:37;95516.25;;;1.47;45.22
12793;BME280;6460;42.684;23.260;2023-02-12T01:21:10;95512.59;;;1.38;45.59
12793;BME280;6460;42.684;23.260;2023-02-12T01:23:37;95515.00;;;1.73;44.75
12793;BME280;6460;42.684;23.260;2023-02-12T01:26:04;95510.63;;;1.53;45.67
12793;BME280;6460;42.684;23.260;2023-02-12T01:28:32;95516.72;;;1.59;45.38
12793;BME280;6460;42.684;23.260;2023-02-12T01:30:59;95508.69;;;1.69;45.50
12793;BME280;6460;42.684;23.260;2023-02-12T01:33:26;95516.13;;;1.67;45.52
12793;BME280;6460;42.684;23.260;2023-02-12T01:35:53;95513.31;;;1.87;45.19
12793;BME280;6460;42.684;23.260;2023-02-12T01:38:23;95512.09;;;1.75;45.50
12793;BME280;6460;42.684;23.260;2023-02-12T01:40:51;95509.78;;;1.63;46.23
12793;BME280;6460;42.684;23.260;2023-02-12T01:43:18;95513.44;;;1.72;46.07
12793;BME280;6460;42.684;23.260;2023-02-12T01:45:50;95497.94;;;1.55;46.58
12793;BME280;6460;42.684;23.260;2023-02-12T01:48:22;95492.25;;;1.72;46.44
12793;BME280;6460;42.684;23.260;2023-02-12T01:50:52;95487.09;;;1.47;47.13
12793;BME280;6460;42.684;23.260;2023-02-12T01:53:21;95477.28;;;1.52;46.87
12793;BME280;6460;42.684;23.260;2023-02-12T01:55:56;95483.69;;;1.46;47.01
12793;BME280;6460;42.684;23.260;2023-02-12T01:58:25;95488.50;;;1.39;47.40
12793;BME280;6460;42.684;23.260;2023-02-12T02:00:54;95490.25;;;1.54;47.20
12793;BME280;6460;42.684;23.260;2023-02-12T02:03:22;95484.94;;;1.59;47.37
12793;BME280;6460;42.684;23.260;2023-02-12T02:05:53;95491.66;;;1.41;47.85
12793;BME280;6460;42.684;23.260;2023-02-12T02:08:22;95507.84;;;1.35;47.56
12793;BME280;6460;42.684;23.260;2023-02-12T02:10:49;95497.78;;;1.37;48.11
12793;BME280;6460;42.684;23.260;2023-02-12T02:13:18;95506.44;;;1.47;47.95
12793;BME280;6460;42.684;23.260;2023-02-12T02:16:09;95495.66;;;1.39;48.15
12793;BME280;6460;42.684;23.260;2023-02-12T02:18:42;95494.91;;;1.33;48.57
12793;BME280;6460;42.684;23.260;2023-02-12T02:21:39;95489.53;;;1.43;48.82
12793;BME280;6460;42.684;23.260;2023-02-12T02:24:30;95497.19;;;1.50;48.86
12793;BME280;6460;42.684;23.260;2023-02-12T02:27:17;95498.66;;;1.27;49.36
12793;BME280;6460;42.684;23.260;2023-02-12T02:32:47;95473.34;;;1.50;48.84
12793;BME280;6460;42.684;23.260;2023-02-12T02:35:22;95469.22;;;1.34;49.77
12793;BME280;6460;42.684;23.260;2023-02-12T02:37:58;95491.44;;;1.33;49.60
12793;BME280;6460;42.684;23.260;2023-02-12T02:40:34;95479.38;;;1.17;50.64
12793;BME280;6460;42.684;23.260;2023-02-12T02:43:06;95484.06;;;1.30;51.02
12793;BME280;6460;42.684;23.260;2023-02-12T02:45:39;95482.91;;;1.02;52.06
12793;BME280;6460;42.684;23.260;2023-02-12T02:48:11;95493.72;;;1.05;52.21
12793;BME280;6460;42.684;23.260;2023-02-12T02:50:43;95486.28;;;1.13;52.39
12793;BME280;6460;42.684;23.260;2023-02-12T02:53:16;95489.16;;;1.16;52.12
12793;BME280;6460;42.684;23.260;2023-02-12T02:55:49;95482.56;;;1.08;52.96
12793;BME280;6460;42.684;23.260;2023-02-12T02:58:19;95494.22;;;1.13;53.05
12793;BME280;6460;42.684;23.260;2023-02-12T03:00:52;95480.97;;;1.18;53.27
12793;BME280;6460;42.684;23.260;2023-02-12T03:03:27;95481.16;;;1.26;53.10
12793;BME280;6460;42.684;23.260;2023-02-12T03:06:01;95483.56;;;1.23;53.25
12793;BME280;6460;42.684;23.260;2023-02-12T03:08:33;95492.50;;;1.32;52.69
12793;BME280;6460;42.684;23.260;2023-02-12T03:11:06;95492.06;;;1.58;52.26
12793;BME280;6460;42.684;23.260;2023-02-12T03:13:41;95486.25;;;1.56;52.67
12793;BME280;6460;42.684;23.260;2023-02-12T03:16:17;95483.06;;;1.59;52.68
12793;BME280;6460;42.684;23.260;2023-02-12T03:18:51;95485.00;;;1.44;53.39
12793;BME280;6460;42.684;23.260;2023-02-12T03:21:25;95482.66;;;1.76;52.54
12793;BME280;6460;42.684;23.260;2023-02-12T03:23:58;95482.03;;;1.89;52.34
12793;BME280;6460;42.684;23.260;2023-02-12T03:26:35;95472.09;;;1.71;52.67
12793;BME280;6460;42.684;23.260;2023-02-12T03:29:04;95480.34;;;1.98;51.64
12793;BME280;6460;42.684;23.260;2023-02-12T03:31:36;95458.31;;;1.74;52.53
12793;BME280;6460;42.684;23.260;2023-02-12T03:34:12;95460.09;;;1.79;52.36
12793;BME280;6460;42.684;23.260;2023-02-12T03:36:46;95461.59;;;1.61;52.61
12793;BME280;6460;42.684;23.260;2023-02-12T03:39:22;95464.53;;;1.88;52.12
12793;BME280;6460;42.684;23.260;2023-02-12T03:41:57;95459.91;;;1.75;52.13
12793;BME280;6460;42.684;23.260;2023-02-12T03:44:37;95464.19;;;1.66;53.05
12793;BME280;6460;42.684;23.260;2023-02-12T03:47:16;95464.72;;;1.68;53.24
12793;BME280;6460;42.684;23.260;2023-02-12T03:49:51;95464.06;;;1.81;53.26
12793;BME280;6460;42.684;23.260;2023-02-12T03:52:20;95461.81;;;1.65;54.05
12793;BME280;6460;42.684;23.260;2023-02-12T03:54:47;95455.16;;;1.72;54.24
12793;BME280;6460;42.684;23.260;2023-02-12T03:57:17;95470.63;;;1.89;53.76
12793;BME280;6460;42.684;23.260;2023-02-12T03:59:46;95461.63;;;1.90;53.93
12793;BME280;6460;42.684;23.260;2023-02-12T04:02:15;95468.28;;;1.82;54.13
12793;BME280;6460;42.684;23.260;2023-02-12T04:04:43;95465.75;;;1.72;54.44
12793;BME280;6460;42.684;23.260;2023-02-12T04:07:12;95458.13;;;1.60;55.10
12793;BME280;6460;42.684;23.260;2023-02-12T04:09:40;95460.47;;;1.67;54.66
12793;BME280;6460;42.684;23.260;2023-02-12T04:15:05;95463.09;;;1.72;54.76
12793;BME280;6460;42.684;23.260;2023-02-12T04:17:43;95465.63;;;1.87;54.37
12793;BME280;6460;42.684;23.260;2023-02-12T04:20:18;95479.47;;;2.08;54.19
12793;BME280;6460;42.684;23.260;2023-02-12T04:22:54;95483.66;;;2.14;53.76
12793;BME280;6460;42.684;23.260;2023-02-12T04:25:36;95488.81;;;2.00;54.12
12793;BME280;6460;42.684;23.260;2023-02-12T04:28:09;95481.56;;;2.11;53.55
12793;BME280;6460;42.684;23.260;2023-02-12T04:30:42;95489.75;;;2.14;53.52
12793;BME280;6460;42.684;23.260;2023-02-12T04:33:14;95481.63;;;2.06;53.65
12793;BME280;6460;42.684;23.260;2023-02-12T04:35:48;95478.31;;;1.90;54.06
12793;BME280;6460;42.684;23.260;2023-02-12T04:38:24;95476.69;;;1.94;54.15
12793;BME280;6460;42.684;23.260;2023-02-12T04:40:53;95485.28;;;1.81;54.57
12793;BME280;6460;42.684;23.260;2023-02-12T04:43:31;95483.56;;;1.95;54.85
12793;BME280;6460;42.684;23.260;2023-02-12T04:45:59;95487.84;;;1.91;54.66
12793;BME280;6460;42.684;23.260;2023-02-12T04:48:26;95496.13;;;1.85;55.06
12793;BME280;6460;42.684;23.260;2023-02-12T04:50:53;95501.56;;;1.98;54.57
12793;BME280;6460;42.684;23.260;2023-02-12T04:53:21;95507.09;;;2.02;54.44
12793;BME280;6460;42.684;23.260;2023-02-12T04:55:48;95503.78;;;1.86;55.12
12793;BME280;6460;42.684;23.260;2023-02-12T04:58:16;95507.09;;;1.68;55.26
12793;BME280;6460;42.684;23.260;2023-02-12T05:00:43;95506.88;;;1.65;55.97
12793;BME280;6460;42.684;23.260;2023-02-12T05:03:10;95507.28;;;1.77;55.48
12793;BME280;6460;42.684;23.260;2023-02-12T05:05:38;95513.44;;;1.72;56.04
12793;BME280;6460;42.684;23.260;2023-02-12T05:08:05;95512.34;;;1.73;55.70
12793;BME280;6460;42.684;23.260;2023-02-12T05:10:33;95522.09;;;1.44;56.56
12793;BME280;6460;42.684;23.260;2023-02-12T05:13:00;95523.19;;;1.38;57.22
12793;BME280;6460;42.684;23.260;2023-02-12T05:15:27;95523.06;;;1.58;56.96
12793;BME280;6460;42.684;23.260;2023-02-12T05:17:55;95530.13;;;1.29;56.78
12793;BME280;6460;42.684;23.260;2023-02-12T05:20:22;95520.81;;;1.36;56.68
12793;BME280;6460;42.684;23.260;2023-02-12T05:22:51;95535.91;;;1.36;56.85
12793;BME280;6460;42.684;23.260;2023-02-12T05:25:19;95544.41;;;1.33;56.92
12793;BME280;6460;42.684;23.260;2023-02-12T05:27:47;95553.38;;;1.42;57.61
12793;BME280;6460;42.684;23.260;2023-02-12T05:30:15;95550.38;;;1.04;59.34
12793;BME280;6460;42.684;23.260;2023-02-12T05:32:42;95555.13;;;1.08;60.80
12793;BME280;6460;42.684;23.260;2023-02-12T05:35:09;95553.53;;;1.06;60.77
12793;BME280;6460;42.684;23.260;2023-02-12T05:37:36;95548.78;;;1.03;61.33
12793;BME280;6460;42.684;23.260;2023-02-12T05:40:05;95561.56;;;0.81;63.68
12793;BME280;6460;42.684;23.260;2023-02-12T05:42:33;95579.31;;;0.76;65.28
12793;BME280;6460;42.684;23.260;2023-02-12T05:45:02;95581.16;;;0.75;66.19
12793;BME280;6460;42.684;23.260;2023-02-12T05:47:29;95575.09;;;0.70;67.70
12793;BME280;6460;42.684;23.260;2023-02-12T05:49:57;95578.25;;;0.72;67.56
12793;BME280;6460;42.684;23.260;2023-02-12T05:52:24;95574.88;;;0.56;68.27
12793;BME280;6460;42.684;23.260;2023-02-12T05:54:51;95577.75;;;0.70;68.84
12793;BME280;6460;42.684;23.260;2023-02-12T05:57:18;95582.81;;;0.51;70.10
12793;BME280;6460;42.684;23.260;2023-02-12T05:59:45;95584.41;;;0.47;71.17
12793;BME280;6460;42.684;23.260;2023-02-12T06:02:14;95594.44;;;0.40;71.64
12793;BME280;6460;42.684;23.260;2023-02-12T06:04:41;95575.38;;;0.58;72.33
12793;BME280;6460;42.684;23.260;2023-02-12T06:07:08;95595.47;;;0.59;73.44
12793;BME280;6460;42.684;23.260;2023-02-12T06:09:36;95574.34;;;0.54;74.41
12793;BME280;6460;42.684;23.260;2023-02-12T06:12:03;95579.63;;;0.39;76.72
12793;BME280;6460;42.684;23.260;2023-02-12T06:14:31;95570.91;;;0.38;78.30
12793;BME280;6460;42.684;23.260;2023-02-12T06:16:58;95566.19;;;0.25;78.94
12793;BME280;6460;42.684;23.260;2023-02-12T06:19:26;95590.75;;;0.36;79.94
12793;BME280;6460;42.684;23.260;2023-02-12T06:21:53;95577.25;;;0.32;80.71
12793;BME280;6460;42.684;23.260;2023-02-12T06:24:20;95574.66;;;0.22;81.64
12793;BME280;6460;42.684;23.260;2023-02-12T06:26:49;95584.44;;;0.02;83.92
12793;BME280;6460;42.684;23.260;2023-02-12T06:29:16;95578.59;;;0.30;86.00
12793;BME280;6460;42.684;23.260;2023-02-12T06:31:44;95578.09;;;0.08;87.22
12793;BME280;6460;42.684;23.260;2023-02-12T06:34:12;95584.97;;;0.09;88.73
12793;BME280;6460;42.684;23.260;2023-02-12T06:36:43;95582.31;;;0.04;89.44
12793;BME280;6460;42.684;23.260;2023-02-12T06:39:11;95572.78;;;0.33;88.79
12793;BME280;6460;42.684;23.260;2023-02-12T06:41:56;95580.22;;;0.06;88.61
12793;BME280;6460;42.684;23.260;2023-02-12T06:44:24;95588.13;;;0.11;90.47
12793;BME280;6460;42.684;23.260;2023-02-12T06:46:51;95584.44;;;0.22;90.69
12793;BME280;6460;42.684;23.260;2023-02-12T06:49:18;95575.72;;;0.06;91.06
12793;BME280;6460;42.684;23.260;2023-02-12T06:51:46;95582.84;;;0.06;91.00
12793;BME280;6460;42.684;23.260;2023-02-12T06:54:15;95584.16;;;0.23;90.54
12793;BME280;6460;42.684;23.260;2023-02-12T06:56:43;95578.09;;;0.28;89.64
12793;BME280;6460;42.684;23.260;2023-02-12T06:59:12;95579.13;;;0.27;89.03
12793;BME280;6460;42.684;23.260;2023-02-12T07:01:42;95588.13;;;0.41;89.06
12793;BME280;6460;42.684;23.260;2023-02-12T07:04:09;95586.78;;;0.43;88.28
12793;BME280;6460;42.684;23.260;2023-02-12T07:06:37;95581.44;;;0.69;87.27
12793;BME280;6460;42.684;23.260;2023-02-12T07:09:05;95584.91;;;0.59;86.90
12793;BME280;6460;42.684;23.260;2023-02-12T07:11:34;95587.56;;;0.59;86.48
12793;BME280;6460;42.684;23.260;2023-02-12T07:14:02;95584.31;;;0.92;85.65
12793;BME280;6460;42.684;23.260;2023-02-12T07:16:29;95591.19;;;0.83;85.67
12793;BME280;6460;42.684;23.260;2023-02-12T07:18:56;95590.75;;;0.51;85.37
12793;BME280;6460;42.684;23.260;2023-02-12T07:21:23;95588.03;;;0.81;84.65
12793;BME280;6460;42.684;23.260;2023-02-12T07:23:51;95579.50;;;0.99;83.92
12793;BME280;6460;42.684;23.260;2023-02-12T07:26:20;95587.69;;;1.08;83.69
12793;BME280;6460;42.684;23.260;2023-02-12T07:28:48;95578.88;;;1.23;83.45
12793;BME280;6460;42.684;23.260;2023-02-12T07:31:18;95582.59;;;1.22;82.39
12793;BME280;6460;42.684;23.260;2023-02-12T07:33:46;95580.97;;;1.26;82.55
12793;BME280;6460;42.684;23.260;2023-02-12T07:36:14;95591.03;;;1.34;82.67
12793;BME280;6460;42.684;23.260;2023-02-12T07:38:42;95587.75;;;1.52;81.96
12793;BME280;6460;42.684;23.260;2023-02-12T07:41:11;95588.84;;;1.46;81.76
12793;BME280;6460;42.684;23.260;2023-02-12T07:43:40;95590.78;;;1.74;86.67
12793;BME280;6460;42.684;23.260;2023-02-12T07:46:09;95604.09;;;1.64;84.32
12793;BME280;6460;42.684;23.260;2023-02-12T07:48:37;95604.84;;;1.70;85.71
12793;BME280;6460;42.684;23.260;2023-02-12T07:51:06;95607.50;;;1.70;83.29
12793;BME280;6460;42.684;23.260;2023-02-12T07:53:33;95608.38;;;1.55;82.99
12793;BME280;6460;42.684;23.260;2023-02-12T07:56:05;95605.75;;;1.55;83.10
12793;BME280;6460;42.684;23.260;2023-02-12T07:58:32;95598.88;;;1.49;83.15
12793;BME280;6460;42.684;23.260;2023-02-12T08:01:11;95605.28;;;1.38;83.91
12793;BME280;6460;42.684;23.260;2023-02-12T08:03:38;95626.06;;;1.05;85.20
12793;BME280;6460;42.684;23.260;2023-02-12T08:06:09;95621.03;;;0.99;85.80
12793;BME280;6460;42.684;23.260;2023-02-12T08:08:37;95618.13;;;1.05;86.32
12793;BME280;6460;42.684;23.260;2023-02-12T08:11:05;95622.66;;;0.90;86.93
12793;BME280;6460;42.684;23.260;2023-02-12T08:13:33;95613.94;;;0.84;87.31
12793;BME280;6460;42.684;23.260;2023-02-12T08:16:02;95618.16;;;0.90;87.54
12793;BME280;6460;42.684;23.260;2023-02-12T08:18:31;95612.28;;;1.14;86.85
12793;BME280;6460;42.684;23.260;2023-02-12T08:21:03;95617.00;;;1.22;86.93
12793;BME280;6460;42.684;23.260;2023-02-12T08:23:31;95617.03;;;1.17;86.79
12793;BME280;6460;42.684;23.260;2023-02-12T08:26:09;95619.34;;;1.28;86.78
12793;BME280;6460;42.684;23.260;2023-02-12T08:28:39;95621.81;;;1.10;86.98
12793;BME280;6460;42.684;23.260;2023-02-12T08:31:09;95626.81;;;1.16;86.83
12793;BME280;6460;42.684;23.260;2023-02-12T08:33:37;95618.91;;;1.06;87.15
12793;BME280;6460;42.684;23.260;2023-02-12T08:36:06;95634.00;;;1.05;87.56
12793;BME280;6460;42.684;23.260;2023-02-12T08:38:35;95643.28;;;0.93;88.07
12793;BME280;6460;42.684;23.260;2023-02-12T08:41:03;95645.41;;;1.01;88.08
12793;BME280;6460;42.684;23.260;2023-02-12T08:43:30;95650.41;;;1.02;88.19
12793;BME280;6460;42.684;23.260;2023-02-12T08:46:02;95646.69;;;1.08;88.12
12793;BME280;6460;42.684;23.260;2023-02-12T08:48:31;95654.38;;;1.10;87.52
12793;BME280;6460;42.684;23.260;2023-02-12T08:51:04;95655.13;;;1.31;90.12
12793;BME280;6460;42.684;23.260;2023-02-12T08:53:32;95658.06;;;1.09;87.33
12793;BME280;6460;42.684;23.260;2023-02-12T08:55:59;95653.91;;;0.83;87.83
12793;BME280;6460;42.684;23.260;2023-02-12T08:58:27;95654.47;;;0.70;89.51
12793;BME280;6460;42.684;23.260;2023-02-12T09:00:54;95656.84;;;0.76;89.39
12793;BME280;6460;42.684;23.260;2023-02-12T09:03:21;95660.28;;;0.72;89.62
12793;BME280;6460;42.684;23.260;2023-02-12T09:05:50;95655.44;;;0.99;89.10
12793;BME280;6460;42.684;23.260;2023-02-12T09:08:17;95659.22;;;0.83;89.74
12793;BME280;6460;42.684;23.260;2023-02-12T09:10:44;95670.03;;;0.81;89.34
12793;BME280;6460;42.684;23.260;2023-02-12T09:13:12;95674.84;;;0.59;89.72
12793;BME280;6460;42.684;23.260;2023-02-12T09:15:41;95679.06;;;0.65;90.37
12793;BME280;6460;42.684;23.260;2023-02-12T09:18:09;95674.31;;;0.47;91.40
12793;BME280;6460;42.684;23.260;2023-02-12T09:20:37;95674.81;;;0.84;91.34
12793;BME280;6460;42.684;23.260;2023-02-12T09:23:07;95673.22;;;0.68;91.11
12793;BME280;6460;42.684;23.260;2023-02-12T09:25:37;95675.31;;;0.96;91.15
12793;BME280;6460;42.684;23.260;2023-02-12T09:28:05;95677.69;;;1.08;90.31
12793;BME280;6460;42.684;23.260;2023-02-12T09:30:32;95679.53;;;1.02;90.42
12793;BME280;6460;42.684;23.260;2023-02-12T09:32:59;95681.41;;;0.92;90.12
12793;BME280;6460;42.684;23.260;2023-02-12T09:35:26;95678.53;;;0.78;91.71
12793;BME280;6460;42.684;23.260;2023-02-12T09:37:54;95669.50;;;0.84;91.96
12793;BME280;6460;42.684;23.260;2023-02-12T09:40:27;95673.19;;;1.03;91.15
12793;BME280;6460;42.684;23.260;2023-02-12T09:43:04;95685.91;;;0.86;91.92
12793;BME280;6460;42.684;23.260;2023-02-12T09:45:35;95689.28;;;1.27;90.72
12793;BME280;6460;42.684;23.260;2023-02-12T09:48:14;95685.63;;;0.93;91.10
12793;BME280;6460;42.684;23.260;2023-02-12T09:50:48;95680.63;;;0.86;91.69
12793;BME280;6460;42.684;23.260;2023-02-12T09:53:20;95687.50;;;0.87;91.01
12793;BME280;6460;42.684;23.260;2023-02-12T09:55:50;95699.34;;;1.25;90.91
12793;BME280;6460;42.684;23.260;2023-02-12T09:58:22;95703.91;;;0.94;90.68
12793;BME280;6460;42.684;23.260;2023-02-12T10:00:53;95704.38;;;1.27;90.48
12793;BME280;6460;42.684;23.260;2023-02-12T10:03:20;95701.44;;;1.33;89.60
12793;BME280;6460;42.684;23.260;2023-02-12T10:05:50;95696.94;;;1.34;88.82
12793;BME280;6460;42.684;23.260;2023-02-12T10:08:39;95700.66;;;1.28;88.50
12793;BME280;6460;42.684;23.260;2023-02-12T10:11:23;95692.22;;;1.16;89.29
12793;BME280;6460;42.684;23.260;2023-02-12T10:14:02;95697.06;;;1.68;87.79
12793;BME280;6460;42.684;23.260;2023-02-12T10:16:41;95696.50;;;1.76;86.59
12793;BME280;6460;42.684;23.260;2023-02-12T10:19:25;95698.63;;;1.74;86.67
12793;BME280;6460;42.684;23.260;2023-02-12T10:22:04;95696.88;;;1.44;86.84
12793;BME280;6460;42.684;23.260;2023-02-12T10:24:47;95695.88;;;1.35;88.18
12793;BME280;6460;42.684;23.260;2023-02-12T10:27:23;95686.19;;;1.74;87.72
12793;BME280;6460;42.684;23.260;2023-02-12T10:29:54;95686.13;;;1.84;86.97
12793;BME280;6460;42.684;23.260;2023-02-12T10:32:24;95683.41;;;1.99;85.98
12793;BME280;6460;42.684;23.260;2023-02-12T10:34:55;95678.09;;;1.99;85.80
12793;BME280;6460;42.684;23.260;2023-02-12T10:37:29;95686.00;;;2.04;85.99
12793;BME280;6460;42.684;23.260;2023-02-12T10:40:03;95691.31;;;2.04;86.23
12793;BME280;6460;42.684;23.260;2023-02-12T10:42:37;95684.66;;;2.12;85.77
12793;BME280;6460;42.684;23.260;2023-02-12T10:45:11;95684.00;;;2.30;85.03
12793;BME280;6460;42.684;23.260;2023-02-12T10:47:40;95690.91;;;2.31;85.05
12793;BME280;6460;42.684;23.260;2023-02-12T10:50:16;95693.97;;;2.48;84.10
12793;BME280;6460;42.684;23.260;2023-02-12T10:52:49;95690.53;;;2.43;84.26
12793;BME280;6460;42.684;23.260;2023-02-12T10:55:27;95694.75;;;2.49;84.53
12793;BME280;6460;42.684;23.260;2023-02-12T10:57:57;95692.06;;;2.15;85.58
12793;BME280;6460;42.684;23.260;2023-02-12T11:00:29;95685.34;;;2.28;85.38
12793;BME280;6460;42.684;23.260;2023-02-12T11:03:15;95694.84;;;2.39;84.64
12793;BME280;6460;42.684;23.260;2023-02-12T11:05:45;95685.38;;;2.61;83.72
12793;BME280;6460;42.684;23.260;2023-02-12T11:08:29;95688.59;;;2.87;83.29
12793;BME280;6460;42.684;23.260;2023-02-12T11:11:02;95694.13;;;2.91;82.55
12793;BME280;6460;42.684;23.260;2023-02-12T11:13:32;95700.97;;;2.68;82.02
12793;BME280;6460;42.684;23.260;2023-02-12T11:15:59;95689.81;;;2.71;82.84
12793;BME280;6460;42.684;23.260;2023-02-12T11:18:28;95691.34;;;2.77;81.75
12793;BME280;6460;42.684;23.260;2023-02-12T11:20:59;95696.91;;;3.09;80.84
12793;BME280;6460;42.684;23.260;2023-02-12T11:23:29;95687.16;;;3.00;81.38
12793;BME280;6460;42.684;23.260;2023-02-12T11:25:59;95677.34;;;3.24;80.22
12793;BME280;6460;42.684;23.260;2023-02-12T11:28:27;95694.25;;;3.33;79.32
12793;BME280;6460;42.684;23.260;2023-02-12T11:30:57;95702.00;;;3.30;78.43
12793;BME280;6460;42.684;23.260;2023-02-12T11:33:30;95688.66;;;3.35;77.67
12793;BME280;6460;42.684;23.260;2023-02-12T11:36:00;95695.09;;;3.52;77.54
12793;BME280;6460;42.684;23.260;2023-02-12T11:38:33;95687.97;;;3.48;78.54
12793;BME280;6460;42.684;23.260;2023-02-12T11:41:07;95689.38;;;3.64;77.94
12793;BME280;6460;42.684;23.260;2023-02-12T11:43:35;95687.13;;;3.76;76.79
12793;BME280;6460;42.684;23.260;2023-02-12T11:46:06;95687.50;;;3.88;76.47
12793;BME280;6460;42.684;23.260;2023-02-12T11:48:36;95676.53;;;3.71;76.38
12793;BME280;6460;42.684;23.260;2023-02-12T11:51:06;95692.22;;;3.72;77.03
12793;BME280;6460;42.684;23.260;2023-02-12T11:53:36;95690.06;;;3.74;76.15
12793;BME280;6460;42.684;23.260;2023-02-12T11:56:07;95690.94;;;3.70;76.61
12793;BME280;6460;42.684;23.260;2023-02-12T11:58:34;95682.19;;;3.88;76.12
12793;BME280;6460;42.684;23.260;2023-02-12T12:01:10;95693.50;;;3.75;76.45
12793;BME280;6460;42.684;23.260;2023-02-12T12:03:44;95683.25;;;3.87;75.54
12793;BME280;6460;42.684;23.260;2023-02-12T12:06:30;95683.78;;;3.89;74.76
12793;BME280;6460;42.684;23.260;2023-02-12T12:09:02;95677.53;;;4.17;75.12
12793;BME280;6460;42.684;23.260;2023-02-12T12:11:36;95693.56;;;4.12;73.79
12793;BME280;6460;42.684;23.260;2023-02-12T12:14:14;95694.94;;;4.10;74.03
12793;BME280;6460;42.684;23.260;2023-02-12T12:16:49;95693.91;;;4.06;74.59
12793;BME280;6460;42.684;23.260;2023-02-12T12:19:41;95687.38;;;3.98;74.80
12793;BME280;6460;42.684;23.260;2023-02-12T12:22:41;95688.81;;;4.28;76.66
12793;BME280;6460;42.684;23.260;2023-02-12T12:25:17;95691.03;;;4.02;74.93
12793;BME280;6460;42.684;23.260;2023-02-12T12:27:55;95684.38;;;4.23;74.00
12793;BME280;6460;42.684;23.260;2023-02-12T12:30:47;95694.47;;;3.84;75.26
12793;BME280;6460;42.684;23.260;2023-02-12T12:33:24;95692.97;;;3.97;75.76
12793;BME280;6460;42.684;23.260;2023-02-12T12:36:04;95687.16;;;4.13;74.50
12793;BME280;6460;42.684;23.260;2023-02-12T12:38:43;95692.81;;;3.88;76.55
12793;BME280;6460;42.684;23.260;2023-02-12T12:41:20;95687.66;;;4.15;74.90
12793;BME280;6460;42.684;23.260;2023-02-12T12:43:57;95697.22;;;4.16;74.17
12793;BME280;6460;42.684;23.260;2023-02-12T12:46:41;95698.38;;;4.29;74.06
12793;BME280;6460;42.684;23.260;2023-02-12T12:52:34;95714.22;;;3.78;75.21
12793;BME280;6460;42.684;23.260;2023-02-12T12:55:22;95718.16;;;3.81;75.19
12793;BME280;6460;42.684;23.260;2023-02-12T12:58:01;95718.63;;;3.64;75.78
12793;BME280;6460;42.684;23.260;2023-02-12T13:00:40;95716.19;;;4.10;75.18
12793;BME280;6460;42.684;23.260;2023-02-12T13:03:36;95723.50;;;3.57;77.15
12793;BME280;6460;42.684;23.260;2023-02-12T13:06:20;95718.19;;;3.57;77.94
12793;BME280;6460;42.684;23.260;2023-02-12T13:09:16;95737.13;;;3.74;76.44
12793;BME280;6460;42.684;23.260;2023-02-12T13:11:55;95726.06;;;4.09;75.14
12793;BME280;6460;42.684;23.260;2023-02-12T13:14:35;95739.78;;;3.98;75.71
12793;BME280;6460;42.684;23.260;2023-02-12T13:17:10;95727.06;;;3.71;76.87
12793;BME280;6460;42.684;23.260;2023-02-12T13:19:50;95738.81;;;3.65;78.00
12793;BME280;6460;42.684;23.260;2023-02-12T13:22:22;95737.63;;;3.52;78.59
12793;BME280;6460;42.684;23.260;2023-02-12T13:24:58;95737.84;;;3.56;77.91
12793;BME280;6460;42.684;23.260;2023-02-12T13:27:31;95734.25;;;3.47;77.99
12793;BME280;6460;42.684;23.260;2023-02-12T13:30:04;95739.94;;;3.59;77.61
12793;BME280;6460;42.684;23.260;2023-02-12T13:32:33;95730.84;;;3.41;78.28
12793;BME280;6460;42.684;23.260;2023-02-12T13:35:04;95739.13;;;3.63;77.94
12793;BME280;6460;42.684;23.260;2023-02-12T13:37:36;95741.59;;;3.55;78.99
12793;BME280;6460;42.684;23.260;2023-02-12T13:40:07;95741.19;;;3.43;78.54